createdAt,value
2018-04-14T01:08:49.220Z,10.38
2018-04-14T01:11:17.395Z,10.42
2018-04-14T01:13:45.565Z,10.47
2018-04-14T01:16:13.765Z,10.40
2018-04-14T01:18:41.949Z,10.49
2018-04-14T01:21:10.117Z,10.57
2018-04-14T01:23:38.289Z,10.62
2018-04-14T01:26:06.475Z,10.68
2018-04-14T01:28:35.421Z,10.66
2018-04-14T01:31:03.601Z,10.67
2018-04-14T01:33:31.772Z,10.67
2018-04-14T01:35:59.940Z,10.62
2018-04-14T01:38:28.107Z,10.60
2018-04-14T01:40:56.301Z,10.57
2018-04-14T01:43:24.501Z,10.49
2018-04-14T01:45:52.682Z,10.47
2018-04-14T01:48:20.853Z,10.44
2018-04-14T01:50:50.525Z,10.41
2018-04-14T01:53:18.701Z,10.38
2018-04-14T01:55:46.874Z,10.28
2018-04-14T01:58:15.054Z,10.29
2018-04-14T02:00:43.225Z,10.30
2018-04-14T02:03:11.390Z,10.28
2018-04-14T02:05:39.585Z,10.19
2018-04-14T02:08:07.746Z,10.22
2018-04-14T02:10:35.929Z,10.17
2018-04-14T02:13:04.876Z,10.19
2018-04-14T02:15:33.834Z,10.18
2018-04-14T02:18:02.004Z,10.12
2018-04-14T02:20:30.167Z,10.08
2018-04-14T02:22:58.330Z,10.02
2018-04-14T02:25:26.535Z,10.09
2018-04-14T02:27:54.710Z,10.10
2018-04-14T02:30:22.890Z,10.13
2018-04-14T02:32:51.056Z,10.08
2018-04-14T02:35:19.229Z,10.09
2018-04-14T02:37:47.411Z,10.00
2018-04-14T02:40:15.618Z,10.00
2018-04-14T02:42:43.785Z,10.01
2018-04-14T02:45:12.709Z,9.92
2018-04-14T02:47:40.889Z,9.85
2018-04-14T02:50:09.059Z,9.87
2018-04-14T02:52:37.236Z,9.84
2018-04-14T02:55:05.393Z,9.81
2018-04-14T02:57:33.575Z,9.77
2018-04-14T03:00:01.730Z,9.75
2018-04-14T03:02:29.908Z,9.85
2018-04-14T03:04:58.069Z,9.85
2018-04-14T03:07:26.997Z,9.83
2018-04-14T03:09:55.159Z,9.79
2018-04-14T03:12:23.365Z,9.87
2018-04-14T03:14:51.532Z,9.79
2018-04-14T03:17:19.693Z,9.72
2018-04-14T03:19:47.850Z,9.68
2018-04-14T03:22:16.021Z,9.71
2018-04-14T03:24:44.197Z,9.72
2018-04-14T03:27:12.356Z,9.68
2018-04-14T03:29:41.322Z,9.65
2018-04-14T03:32:09.498Z,9.74
2018-04-14T03:34:37.672Z,9.76
2018-04-14T03:37:05.850Z,9.72
2018-04-14T03:39:34.014Z,9.71
2018-04-14T03:42:02.177Z,9.73
2018-04-14T03:44:30.347Z,9.76
2018-04-14T03:46:58.507Z,9.74
2018-04-14T03:49:26.679Z,9.67
2018-04-14T03:51:54.841Z,9.70
2018-04-14T03:54:23.005Z,9.70
2018-04-14T03:56:51.941Z,9.64
2018-04-14T03:59:20.105Z,9.72
2018-04-14T04:01:48.273Z,9.70
2018-04-14T04:04:16.437Z,9.69
2018-04-14T04:06:44.612Z,9.70
2018-04-14T04:09:12.774Z,9.68
2018-04-14T04:11:40.954Z,9.67
2018-04-14T04:14:09.123Z,9.74
2018-04-14T04:16:37.322Z,9.74
2018-04-14T04:19:23.573Z,9.72
2018-04-14T04:22:10.246Z,9.69
2018-04-14T04:24:56.162Z,9.64
2018-04-14T04:27:25.099Z,9.63
2018-04-14T04:29:53.264Z,9.54
2018-04-14T04:32:21.440Z,9.51
2018-04-14T04:34:49.605Z,9.55
2018-04-14T04:37:18.549Z,9.60
2018-04-14T04:39:46.722Z,9.72
2018-04-14T04:42:14.894Z,9.78
2018-04-14T04:44:43.093Z,9.71
2018-04-14T04:47:11.266Z,9.72
2018-04-14T04:49:39.433Z,9.77
2018-04-14T04:52:07.615Z,9.79
2018-04-14T04:54:35.791Z,9.79
2018-04-14T04:57:03.953Z,9.85
2018-04-14T04:59:32.140Z,9.92
2018-04-14T05:02:00.313Z,9.89
2018-04-14T05:04:28.489Z,9.98
2018-04-14T05:06:57.422Z,9.92
2018-04-14T05:09:25.582Z,9.94
2018-04-14T05:11:53.760Z,9.95
2018-04-14T05:14:21.929Z,9.98
2018-04-14T05:16:50.867Z,9.98
2018-04-14T05:19:19.806Z,10.01
2018-04-14T05:21:48.741Z,10.07
2018-04-14T05:24:16.939Z,10.08
2018-04-14T05:26:45.121Z,10.08
2018-04-14T05:29:13.302Z,10.10
2018-04-14T05:31:41.511Z,10.12
2018-04-14T05:34:09.682Z,10.14
2018-04-14T05:36:38.611Z,10.26
2018-04-14T05:39:06.804Z,10.32
2018-04-14T05:41:34.968Z,10.27
2018-04-14T05:44:03.149Z,10.35
2018-04-14T05:46:31.313Z,10.42
2018-04-14T05:48:59.474Z,10.57
2018-04-14T05:51:27.677Z,10.68
2018-04-14T05:53:55.841Z,10.80
2018-04-14T05:56:24.038Z,10.82
2018-04-14T05:58:53.057Z,10.88
2018-04-14T06:01:21.985Z,10.99
2018-04-14T06:03:50.170Z,11.08
2018-04-14T06:06:18.616Z,11.27
2018-04-14T06:08:46.786Z,11.28
2018-04-14T06:11:14.965Z,11.41
2018-04-14T06:13:43.141Z,11.45
2018-04-14T06:16:11.309Z,11.50
2018-04-14T06:18:39.483Z,11.62
2018-04-14T06:21:08.416Z,11.69
2018-04-14T06:23:36.607Z,11.72
2018-04-14T06:26:04.784Z,11.78
2018-04-14T06:28:32.977Z,11.89
2018-04-14T06:31:01.922Z,12.05
2018-04-14T06:33:30.093Z,12.09
2018-04-14T06:35:58.266Z,12.16
2018-04-14T06:38:26.444Z,12.21
2018-04-14T06:40:54.617Z,12.25
2018-04-14T06:43:23.125Z,12.29
2018-04-14T06:45:51.376Z,12.37
2018-04-14T06:48:19.558Z,12.40
2018-04-14T06:50:47.727Z,12.40
2018-04-14T06:53:15.916Z,12.46
2018-04-14T06:55:44.116Z,12.48
2018-04-14T06:58:12.293Z,12.56
2018-04-14T07:00:40.466Z,12.69
2018-04-14T07:03:08.652Z,12.77
2018-04-14T07:05:37.612Z,12.88
2018-04-14T07:08:05.817Z,12.92
2018-04-14T07:10:34.782Z,13.04
2018-04-14T07:13:02.974Z,13.17
2018-04-14T07:15:31.214Z,13.26
2018-04-14T07:17:59.386Z,13.34
2018-04-14T07:20:27.574Z,13.49
2018-04-14T07:22:55.749Z,13.60
2018-04-14T07:25:23.917Z,13.67
2018-04-14T07:27:52.101Z,13.78
2018-04-14T07:30:20.301Z,13.91
2018-04-14T07:32:48.497Z,14.00
2018-04-14T07:35:17.435Z,14.12
2018-04-14T07:37:45.621Z,14.21
2018-04-14T07:40:13.813Z,14.33
2018-04-14T07:42:41.984Z,14.43
2018-04-14T07:45:10.168Z,14.53
2018-04-14T07:47:38.374Z,14.69
2018-04-14T07:50:06.557Z,14.85
2018-04-14T07:52:34.728Z,14.95
2018-04-14T07:55:02.896Z,15.12
2018-04-14T07:57:31.074Z,15.21
2018-04-14T07:59:59.272Z,15.44
2018-04-14T08:02:27.486Z,15.55
2018-04-14T08:04:55.661Z,15.66
2018-04-14T08:07:23.842Z,15.78
2018-04-14T08:09:52.028Z,15.86
2018-04-14T08:12:20.977Z,15.95
2018-04-14T08:14:49.149Z,16.13
2018-04-14T08:17:18.114Z,16.23
2018-04-14T08:19:46.293Z,16.42
2018-04-14T08:22:14.479Z,16.62
2018-04-14T08:24:42.714Z,16.89
2018-04-14T08:27:10.974Z,16.99
2018-04-14T08:29:39.189Z,17.03
2018-04-14T08:32:07.371Z,17.11
2018-04-14T08:34:35.547Z,17.27
2018-04-14T08:37:03.732Z,17.38
2018-04-14T08:39:31.919Z,17.69
2018-04-14T08:42:00.090Z,17.73
2018-04-14T08:44:28.372Z,17.85
2018-04-14T08:46:56.635Z,18.10
2018-04-14T08:49:24.802Z,17.94
2018-04-14T08:51:52.982Z,17.87
2018-04-14T08:54:21.164Z,18.17
2018-04-14T08:56:49.348Z,18.44
2018-04-14T08:59:17.521Z,18.60
2018-04-14T09:01:45.703Z,18.65
2018-04-14T09:04:13.896Z,18.87
2018-04-14T09:06:42.078Z,18.78
2018-04-14T09:09:10.304Z,19.03
2018-04-14T09:11:38.461Z,19.06
2018-04-14T09:14:06.633Z,19.16
2018-04-14T09:16:34.818Z,19.46
2018-04-14T09:19:03.003Z,19.73
2018-04-14T09:21:31.194Z,20.09
2018-04-14T09:23:59.370Z,20.08
2018-04-14T09:26:27.545Z,20.31
2018-04-14T09:28:55.745Z,20.64
2018-04-14T09:31:23.927Z,20.83
2018-04-14T09:33:52.881Z,20.76
2018-04-14T09:36:21.057Z,21.15
2018-04-14T09:38:49.241Z,21.39
2018-04-14T09:41:17.454Z,21.58
2018-04-14T09:43:46.405Z,21.74
2018-04-14T09:46:14.594Z,21.87
2018-04-14T09:48:42.768Z,22.31
2018-04-14T09:51:10.991Z,22.39
2018-04-14T09:53:39.167Z,22.65
2018-04-14T09:56:07.342Z,23.05
2018-04-14T09:58:35.542Z,22.80
2018-04-14T10:01:09.265Z,23.24
2018-04-14T10:03:37.461Z,22.78
2018-04-14T10:06:14.450Z,22.91
2018-04-14T10:08:43.503Z,22.85
2018-04-14T10:11:11.668Z,22.97
2018-04-14T10:13:39.920Z,23.15
2018-04-14T10:16:08.092Z,23.47
2018-04-14T10:18:36.296Z,23.69
2018-04-14T10:21:04.508Z,23.82
2018-04-14T10:23:32.685Z,24.17
2018-04-14T10:26:00.853Z,24.58
2018-04-14T10:28:29.029Z,24.96
2018-04-14T10:30:57.273Z,25.29
2018-04-14T10:33:25.478Z,24.89
2018-04-14T10:35:53.676Z,25.08
2018-04-14T10:38:22.615Z,25.61
2018-04-14T10:40:50.797Z,26.08
2018-04-14T10:43:18.973Z,26.30
2018-04-14T10:45:47.140Z,26.69
2018-04-14T10:48:15.324Z,26.82
2018-04-14T10:50:43.513Z,26.89
2018-04-14T10:53:11.702Z,27.36
2018-04-14T10:55:39.883Z,27.36
2018-04-14T10:58:08.059Z,27.37
2018-04-14T11:00:36.231Z,27.70
2018-04-14T11:03:05.174Z,27.69
2018-04-14T11:05:33.416Z,27.83
2018-04-14T11:08:02.369Z,28.35
2018-04-14T11:10:30.567Z,28.53
2018-04-14T11:12:58.753Z,29.25
2018-04-14T11:15:27.697Z,29.71
2018-04-14T11:17:55.874Z,28.58
2018-04-14T11:20:24.056Z,28.74
2018-04-14T11:22:52.258Z,29.15
2018-04-14T11:25:21.220Z,28.86
2018-04-14T11:27:49.396Z,28.59
2018-04-14T11:30:17.581Z,28.77
2018-04-14T11:32:45.753Z,28.69
2018-04-14T11:35:13.939Z,28.32
2018-04-14T11:37:42.110Z,27.77
2018-04-14T11:40:10.323Z,27.95
2018-04-14T11:42:39.260Z,28.13
2018-04-14T11:45:07.437Z,28.74
2018-04-14T11:47:35.635Z,29.64
2018-04-14T11:50:03.805Z,29.66
2018-04-14T11:52:31.982Z,28.90
2018-04-14T11:55:00.167Z,28.34
2018-04-14T11:57:29.126Z,27.44
2018-04-14T11:59:57.304Z,27.64
2018-04-14T12:02:25.537Z,28.13
2018-04-14T12:04:53.709Z,27.73
2018-04-14T12:07:21.913Z,27.79
2018-04-14T12:09:50.109Z,28.77
2018-04-14T12:12:18.324Z,29.02
2018-04-14T12:14:47.268Z,29.43
2018-04-14T12:17:15.439Z,30.55
2018-04-14T12:19:43.621Z,31.35
2018-04-14T12:22:11.789Z,32.07
2018-04-14T12:24:39.969Z,32.44
2018-04-14T12:27:08.146Z,34.96
2018-04-14T12:29:36.331Z,37.25
2018-04-14T12:32:04.522Z,39.13
2018-04-14T12:34:33.529Z,40.96
2018-04-14T12:37:01.676Z,43.15
2018-04-14T12:39:29.862Z,44.20
2018-04-14T12:41:58.056Z,44.35
2018-04-14T12:44:26.995Z,45.62
2018-04-14T12:46:55.165Z,45.96
2018-04-14T12:49:23.345Z,46.89
2018-04-14T12:51:51.517Z,47.60
2018-04-14T12:54:19.682Z,48.43
2018-04-14T12:56:48.205Z,47.83
2018-04-14T12:59:16.389Z,47.24
2018-04-14T13:01:44.622Z,46.62
2018-04-14T13:04:12.796Z,46.48
2018-04-14T13:06:40.972Z,46.49
2018-04-14T13:09:09.191Z,45.40
2018-04-14T13:11:37.365Z,45.89
2018-04-14T13:14:06.345Z,46.12
2018-04-14T13:16:34.546Z,45.62
2018-04-14T13:19:03.554Z,44.48
2018-04-14T13:21:31.721Z,45.07
2018-04-14T13:24:00.672Z,45.19
2018-04-14T13:26:28.844Z,44.95
2018-04-14T13:28:57.785Z,46.17
2018-04-14T13:31:25.966Z,46.61
2018-04-14T13:33:54.130Z,46.51
2018-04-14T13:36:23.073Z,44.82
2018-04-14T13:38:51.265Z,45.63
2018-04-14T13:41:19.466Z,47.19
2018-04-14T13:43:48.406Z,46.60
2018-04-14T13:46:16.613Z,46.42
2018-04-14T13:48:44.796Z,46.30
2018-04-14T13:51:13.753Z,45.53
2018-04-14T13:53:41.921Z,45.07
2018-04-14T13:56:10.086Z,45.11
2018-04-14T13:58:38.264Z,45.46
2018-04-14T14:01:06.436Z,46.64
2018-04-14T14:03:34.613Z,46.10
2018-04-14T14:06:02.798Z,44.62
2018-04-14T14:08:30.963Z,44.31
2018-04-14T14:10:59.125Z,43.60
2018-04-14T14:13:27.370Z,43.34
2018-04-14T14:15:56.317Z,44.19
2018-04-14T14:18:24.515Z,43.58
2018-04-14T14:20:52.681Z,43.99
2018-04-14T14:23:20.846Z,43.90
2018-04-14T14:25:49.018Z,44.39
2018-04-14T14:28:17.197Z,45.54
2018-04-14T14:30:45.393Z,45.91
2018-04-14T14:33:13.562Z,45.76
2018-04-14T14:35:41.769Z,45.76
2018-04-14T14:38:09.979Z,44.90
2018-04-14T14:40:38.119Z,44.38
2018-04-14T14:43:06.312Z,44.05
2018-04-14T14:45:34.479Z,41.43
2018-04-14T14:48:02.652Z,41.93
2018-04-14T14:50:30.827Z,42.65
2018-04-14T14:52:58.996Z,43.08
2018-04-14T14:55:27.227Z,43.89
2018-04-14T14:57:55.398Z,43.26
2018-04-14T15:00:23.577Z,43.09
2018-04-14T15:02:51.757Z,43.22
2018-04-14T15:05:19.949Z,42.10
2018-04-14T15:07:48.119Z,41.79
2018-04-14T15:10:16.279Z,41.71
2018-04-14T15:12:44.463Z,41.91
2018-04-14T15:15:12.634Z,41.46
2018-04-14T15:17:40.800Z,40.08
2018-04-14T15:20:08.975Z,39.73
2018-04-14T15:22:37.149Z,38.48
2018-04-14T15:25:05.338Z,36.77
2018-04-14T15:27:33.515Z,35.51
2018-04-14T15:30:01.735Z,35.05
2018-04-14T15:32:29.931Z,33.88
2018-04-14T15:34:58.863Z,32.54
2018-04-14T15:37:27.037Z,32.59
2018-04-14T15:39:55.214Z,32.77
2018-04-14T15:42:23.401Z,32.57
2018-04-14T15:44:51.583Z,32.46
2018-04-14T15:47:19.753Z,32.63
2018-04-14T15:49:47.927Z,31.86
2018-04-14T15:52:16.115Z,31.83
2018-04-14T15:54:44.294Z,31.57
2018-04-14T15:57:12.524Z,31.68
2018-04-14T15:59:40.705Z,31.57
2018-04-14T16:02:08.894Z,31.22
2018-04-14T16:04:37.075Z,31.14
2018-04-14T16:07:05.249Z,31.11
2018-04-14T16:09:33.493Z,31.36
2018-04-14T16:12:01.690Z,31.19
2018-04-14T16:14:29.862Z,30.80
2018-04-14T16:16:58.044Z,30.70
2018-04-14T16:19:26.231Z,30.58
2018-04-14T16:21:54.437Z,30.15
2018-04-14T16:24:23.397Z,29.07
2018-04-14T16:26:51.574Z,28.13
2018-04-14T16:29:19.740Z,27.37
2018-04-14T16:31:48.678Z,27.08
2018-04-14T16:34:17.613Z,26.53
2018-04-14T16:36:45.791Z,26.33
2018-04-14T16:39:13.964Z,26.41
2018-04-14T16:41:42.146Z,26.36
2018-04-14T16:44:10.327Z,26.44
2018-04-14T16:46:38.509Z,26.61
2018-04-14T16:49:06.686Z,26.84
2018-04-14T16:51:34.845Z,26.79
2018-04-14T16:54:03.053Z,26.71
2018-04-14T16:56:31.217Z,26.32
2018-04-14T16:58:59.395Z,26.29
2018-04-14T17:01:27.575Z,26.07
2018-04-14T17:03:56.514Z,25.70
2018-04-14T17:06:24.682Z,25.70
2018-04-14T17:08:52.864Z,25.46
2018-04-14T17:11:21.054Z,24.98
2018-04-14T17:13:49.240Z,24.64
2018-04-14T17:16:17.401Z,24.01
2018-04-14T17:18:45.572Z,23.91
2018-04-14T17:21:13.778Z,23.81
2018-04-14T17:23:41.951Z,23.72
2018-04-14T17:26:10.116Z,23.61
2018-04-14T17:28:38.278Z,23.46
2018-04-14T17:31:06.449Z,23.23
2018-04-14T17:33:34.620Z,23.20
2018-04-14T17:36:02.791Z,22.93
2018-04-14T17:38:30.957Z,22.87
2018-04-14T17:40:59.133Z,22.76
2018-04-14T17:43:27.310Z,22.57
2018-04-14T17:45:55.481Z,22.32
2018-04-14T17:48:23.677Z,22.28
2018-04-14T17:50:51.865Z,22.21
2018-04-14T17:53:20.044Z,22.06
2018-04-14T17:55:48.227Z,22.06
2018-04-14T17:58:16.397Z,21.99
2018-04-14T18:00:44.590Z,21.80
2018-04-14T18:03:13.539Z,21.71
2018-04-14T18:05:41.711Z,21.58
2018-04-14T18:08:09.881Z,21.53
2018-04-14T18:10:38.101Z,21.43
2018-04-14T18:13:07.037Z,21.43
2018-04-14T18:15:35.241Z,21.28
2018-04-14T18:18:03.413Z,21.16
2018-04-14T18:20:31.581Z,21.11
2018-04-14T18:22:59.786Z,20.99
2018-04-14T18:25:27.952Z,20.95
2018-04-14T18:27:56.131Z,20.90
2018-04-14T18:30:24.306Z,20.81
2018-04-14T18:32:52.490Z,20.74
2018-04-14T18:35:21.460Z,20.76
2018-04-14T18:37:49.628Z,20.61
2018-04-14T18:40:17.806Z,20.51
2018-04-14T18:42:45.983Z,20.32
2018-04-14T18:45:14.156Z,20.24
2018-04-14T18:47:42.358Z,20.03
2018-04-14T18:50:11.352Z,19.90
2018-04-14T18:52:39.480Z,19.83
2018-04-14T18:55:07.692Z,19.68
2018-04-14T18:57:35.862Z,19.59
2018-04-14T19:00:04.103Z,19.58
2018-04-14T19:02:32.274Z,19.34
2018-04-14T19:05:00.439Z,19.26
2018-04-14T19:07:28.613Z,19.15
2018-04-14T19:09:56.772Z,19.00
2018-04-14T19:12:24.961Z,18.82
2018-04-14T19:14:53.141Z,18.68
2018-04-14T19:17:21.316Z,18.57
2018-04-14T19:19:49.501Z,18.39
2018-04-14T19:22:17.665Z,18.30
2018-04-14T19:24:45.940Z,18.23
2018-04-14T19:27:14.159Z,18.14
2018-04-14T19:29:42.340Z,18.05
2018-04-14T19:32:11.293Z,17.92
2018-04-14T19:34:39.469Z,17.81
2018-04-14T19:37:07.655Z,17.76
2018-04-14T19:39:35.852Z,17.71
2018-04-14T19:42:04.026Z,17.63
2018-04-14T19:44:32.198Z,17.49
2018-04-14T19:47:00.385Z,17.54
2018-04-14T19:49:29.323Z,17.40
2018-04-14T19:51:57.494Z,17.28
2018-04-14T19:54:25.726Z,17.24
2018-04-14T19:56:53.868Z,17.21
2018-04-14T19:59:22.044Z,17.17
2018-04-14T20:01:50.235Z,17.20
2018-04-14T20:04:18.401Z,17.23
2018-04-14T20:06:46.608Z,17.34
2018-04-14T20:09:15.545Z,17.17
2018-04-14T20:11:43.722Z,17.21
2018-04-14T20:14:11.917Z,17.16
2018-04-14T20:16:40.087Z,17.08
2018-04-14T20:19:08.282Z,17.07
2018-04-14T20:21:36.463Z,17.09
2018-04-14T20:24:04.633Z,17.04
2018-04-14T20:26:32.810Z,17.06
2018-04-14T20:29:00.979Z,17.05
2018-04-14T20:31:29.155Z,17.07
2018-04-14T20:33:57.322Z,17.02
2018-04-14T20:36:25.492Z,17.08
2018-04-14T20:38:53.664Z,17.05
2018-04-14T20:41:21.833Z,17.04
2018-04-14T20:43:50.012Z,17.08
2018-04-14T20:46:18.183Z,16.93
2018-04-14T20:48:46.353Z,16.93
2018-04-14T20:51:14.526Z,17.00
2018-04-14T20:53:42.698Z,17.01
2018-04-14T20:56:10.885Z,17.02
2018-04-14T20:58:39.096Z,17.01
2018-04-14T21:01:08.028Z,16.92
2018-04-14T21:03:36.205Z,16.87
2018-04-14T21:06:04.395Z,16.90
2018-04-14T21:08:32.658Z,16.80
2018-04-14T21:11:00.833Z,16.83
2018-04-14T21:13:29.004Z,16.76
2018-04-14T21:15:57.181Z,16.75
2018-04-14T21:18:25.364Z,16.74
2018-04-14T21:20:53.546Z,16.74
2018-04-14T21:23:21.714Z,16.77
2018-04-14T21:25:49.886Z,16.68
2018-04-14T21:28:18.075Z,16.69
2018-04-14T21:30:46.237Z,16.64
2018-04-14T21:33:14.406Z,16.69
2018-04-14T21:35:42.585Z,16.71
2018-04-14T21:38:10.767Z,16.76
2018-04-14T21:40:38.956Z,16.74
2018-04-14T21:43:07.126Z,16.70
2018-04-14T21:45:35.294Z,16.70
2018-04-14T21:48:03.467Z,16.78
2018-04-14T21:50:31.656Z,16.90
2018-04-14T21:52:59.822Z,16.83
2018-04-14T21:55:28.005Z,16.79
2018-04-14T21:57:56.252Z,16.73
2018-04-14T22:00:24.424Z,16.63
2018-04-14T22:02:52.589Z,16.52
2018-04-14T22:05:20.773Z,16.45
2018-04-14T22:07:48.959Z,16.38
2018-04-14T22:10:17.121Z,16.36
2018-04-14T22:12:45.372Z,16.32
2018-04-14T22:15:13.493Z,16.32
2018-04-14T22:17:41.682Z,16.32
2018-04-14T22:20:09.856Z,16.23
2018-04-14T22:22:38.061Z,16.20
2018-04-14T22:25:06.274Z,16.27
2018-04-14T22:27:34.449Z,16.18
2018-04-14T22:30:02.630Z,16.15
2018-04-14T22:32:30.792Z,16.11
2018-04-14T22:34:58.965Z,16.14
2018-04-14T22:37:27.133Z,16.18
2018-04-14T22:39:55.308Z,16.16
2018-04-14T22:42:23.494Z,16.21
2018-04-14T22:44:51.693Z,16.12
2018-04-14T22:47:19.862Z,16.05
2018-04-14T22:49:48.034Z,16.06
2018-04-14T22:52:16.217Z,15.97
2018-04-14T22:54:44.392Z,15.97
2018-04-14T22:57:12.564Z,15.83
2018-04-14T22:59:40.741Z,15.76
2018-04-14T23:02:08.923Z,15.75
2018-04-14T23:04:37.098Z,15.79
2018-04-14T23:07:05.264Z,15.76
2018-04-14T23:09:33.445Z,15.75
2018-04-14T23:12:01.619Z,15.74
2018-04-14T23:14:29.795Z,15.75
2018-04-14T23:16:57.969Z,15.75
2018-04-14T23:19:26.137Z,15.74
2018-04-14T23:21:54.310Z,15.71
2018-04-14T23:24:22.481Z,15.61
2018-04-14T23:26:50.638Z,15.53
2018-04-14T23:29:19.625Z,15.45
2018-04-14T23:31:47.788Z,15.38
2018-04-14T23:34:15.961Z,15.41
2018-04-14T23:36:44.125Z,15.34
2018-04-14T23:39:12.285Z,15.28
2018-04-14T23:41:41.246Z,15.25
2018-04-14T23:44:09.412Z,15.22
2018-04-14T23:46:37.605Z,15.25
2018-04-14T23:49:06.624Z,15.14
2018-04-14T23:51:34.785Z,15.12
2018-04-14T23:54:03.743Z,15.06
2018-04-14T23:56:31.920Z,15.10
2018-04-14T23:59:00.082Z,15.04
